Archival Weather

Al Ahsa

Al Ahsa, Saudi Arabia (OEAH)

Report from: Friday, May 26, 2023 12:00 PM +03
Current time: Friday, July 19, 2024 6:30 AM +03

Current weather – Weather history – Daily summaries
Weather forecast

Temperature42.0°C (107.6°F)
Heat index39.4°C (103.0°F)
Dew point6.0°C (42.8°F)
Winds 8 kts (4.1 m/s, 9.2 mph) South-Southeast (160°)
Clouds Sky clear
Altimeter29.77 in.Hg (1008 mB)
Relative humidity11 %
Density altitude3,336 ft. (1,017 m)
Remarks Ceiling and visibility OK
No significant changes expected in the next two hours
Flight conditions Visual Meteorological Conditions
Raw dataOEAH 260900Z 16008KT CAVOK 42/06 Q1008 NOSIG
An error has occurred. This application may no longer respond until reloaded. Reload 🗙